Home > Products > Valid Products > TAF

000
FTUS46 KMFR 140950 AAA
TAFLMT
TAF AMD
KLMT 140950Z 1410/1506 VRB04KT P6SM VCSH BKN015 OVC040
     FM141200 VRB03KT P6SM -RA SCT015 BKN025 OVC035
     FM141500 17003KT 6SM -RA BR SCT006 BKN015 OVC025
     FM141800 VRB03KT P6SM -RA BKN010 OVC025=



000
FTUS46 KMFR 140901 AAA
TAFMFR
TAF AMD
KMFR 140901Z 1409/1506 00000KT P6SM -RA BKN010 OVC025
     FM141200 00000KT 4SM -RA BR BKN010 OVC025
     FM141800 VRB03KT 6SM -RA BR SCT007 BKN015 OVC025=



000
FTUS46 KMFR 140556 CCA
TAFLMT
TAF COR
KLMT 140556Z 1406/1506 VRB04KT P6SM VCSH SCT030 BKN040 OVC060
     FM141200 VRB03KT P6SM -RA SCT015 BKN025 OVC035
     FM141500 17003KT 6SM -RA BR SCT006 BKN015 OVC025
     FM141800 VRB03KT P6SM -RA BKN010 OVC025=



000
FTUS46 KMFR 140548
TAFMFR
TAF
KMFR 140548Z 1406/1506 00000KT P6SM -RA SCT025 OVC035
     FM141200 00000KT 4SM -RA BR SCT015 OVC025
     FM141800 VRB03KT 6SM -RA BR SCT007 BKN015 OVC025=



000
FTUS46 KMFR 140548
TAFRBG
TAF
KRBG 140548Z 1406/1506 00000KT P6SM -RA SCT015 OVC025
     FM141200 00000KT 5SM -RA BR BKN010 OVC020
     FM141800 VRB02KT 5SM -RA BR FEW004 BKN009 OVC015
     FM142100 VRB02KT 6SM -RA BR BKN010 BKN020 OVC035=



000
FTUS46 KMFR 140548
TAFOTH
TAF
KOTH 140548Z 1406/1506 19012KT 5SM -RA BR FEW007 OVC014
     FM141000 21011G17KT 5SM -RA BR BKN006 OVC009
     FM141800 19009KT 5SM -RA BR SCT005 BKN007 OVC010=



000
FTUS46 KMFR 140548
TAFMFR
TAF
KMFR 140548Z 1406/1506 00000KT P6SM -RA SCT025 OVC035
     FM141200 00000KT 4SM -RA BR SCT015 OVC025
     FM141800 VRB03KT 6SM -RA BR SCT007 BKN015 OVC025=



000
FTUS46 KMFR 140548
TAFOTH
TAF
KOTH 140548Z 1406/1506 19012KT 5SM -RA BR FEW007 OVC014
     FM141000 21011G17KT 5SM -RA BR BKN006 OVC009
     FM141800 19009KT 5SM -RA BR SCT005 BKN007 OVC010=



000
FTUS46 KMFR 140548
TAFRBG
TAF
KRBG 140548Z 1406/1506 00000KT P6SM -RA SCT015 OVC025
     FM141200 00000KT 5SM -RA BR BKN010 OVC020
     FM141800 VRB02KT 5SM -RA BR FEW004 BKN009 OVC015
     FM142100 VRB02KT 6SM -RA BR BKN010 BKN020 OVC035=



000
FTUS46 KMFR 140548
TAFLMT
TAF
KLMT 140548Z 1406/1506 27006KT P6SM VCSH BKN040 OVC060
     FM141200 25006KT P6SM -RA OVC035
     FM141800 27008KT P6SM VCSH BKN050 BKN100=



000
FTUS46 KMFR 140548
TAFLMT
TAF
KLMT 140548Z 1406/1506 27006KT P6SM VCSH BKN040 OVC060
     FM141200 25006KT P6SM -RA OVC035
     FM141800 27008KT P6SM VCSH BKN050 BKN100=



000
FTUS46 KMFR 132339
TAFRBG
TAF
KRBG 132339Z 1400/1424 18004KT P6SM BKN070 OVC100
     FM140300 17003KT P6SM -RA BKN020 OVC040
     FM140900 VRB02KT 4SM -RA BR BKN008 OVC020
     FM141800 20003KT P6SM -RA BKN035 OVC050=



000
FTUS46 KMFR 132339
TAFLMT
TAF
KLMT 132339Z 1400/1424 28008KT P6SM BKN150
     FM140500 27006KT P6SM VCSH BKN050 BKN080
     FM141200 25006KT P6SM -RA OVC035
     FM141800 27008KT P6SM VCSH BKN050 BKN100=



000
FTUS46 KMFR 132339
TAFOTH
TAF
KOTH 132339Z 1400/1424 19010G15KT P6SM -RA BKN035 OVC050
     FM140200 19015G25KT 5SM -RA BR BKN015 OVC025
     FM140800 21012G18KT 3SM -RA BR BKN008 OVC020
     FM141800 20008KT P6SM VCSH BKN015 BKN035 OVC050=



000
FTUS46 KMFR 132339
TAFMFR
TAF
KMFR 132339Z 1400/1424 14003KT P6SM BKN080 OVC120
     FM140400 15003KT P6SM -RA BKN030 OVC070
     FM141100 VRB02KT 4SM -RA BR OVC015
     FM141800 VRB03KT P6SM VCSH BKN035 OVC050=



000
FTUS46 KMFR 132339
TAFRBG
TAF
KRBG 132339Z 1400/1424 18004KT P6SM BKN070 OVC100
     FM140300 17003KT P6SM -RA BKN020 OVC040
     FM140900 VRB02KT 4SM -RA BR BKN008 OVC020
     FM141800 20003KT P6SM -RA BKN035 OVC050=



000
FTUS46 KMFR 132339
TAFOTH
TAF
KOTH 132339Z 1400/1424 19010G15KT P6SM -RA BKN035 OVC050
     FM140200 19015G25KT 5SM -RA BR BKN015 OVC025
     FM140800 21012G18KT 3SM -RA BR BKN008 OVC020
     FM141800 20008KT P6SM VCSH BKN015 BKN035 OVC050=



000
FTUS46 KMFR 132339
TAFLMT
TAF
KLMT 132339Z 1400/1424 28008KT P6SM BKN150
     FM140500 27006KT P6SM VCSH BKN050 BKN080
     FM141200 25006KT P6SM -RA OVC035
     FM141800 27008KT P6SM VCSH BKN050 BKN100=



000
FTUS46 KMFR 132339
TAFMFR
TAF
KMFR 132339Z 1400/1424 14003KT P6SM BKN080 OVC120
     FM140400 15003KT P6SM -RA BKN030 OVC070
     FM141100 VRB02KT 4SM -RA BR OVC015
     FM141800 VRB03KT P6SM VCSH BKN035 OVC050=



000
FTUS46 KMFR 131934 AAA
TAFMFR
TAF AMD
KMFR 131934Z 1320/1418 VRB03KT P6SM BKN008 BKN120
     FM132200 VRB03KT P6SM SCT010 BKN020
     FM140300 VRB03KT 5SM -RA BKN030 OVC070
     FM141100 VRB02KT 1SM -RA BR OVC015=



000
FTUS46 KMFR 131726
TAFLMT
TAF
KLMT 131726Z 1318/1418 VRB03KT P6SM SCT010
     FM140500 27006KT P6SM VCSH BKN050 BKN080
     FM141200 25006KT P6SM -RA OVC035=



000
FTUS46 KMFR 131726
TAFOTH
TAF
KOTH 131726Z 1318/1418 17008KT P6SM SCT025
     FM132300 20009KT P6SM -RA BKN035 OVC050
     FM140200 19015G25KT 5SM -RA BR BKN015 OVC025
     FM140800 21012G18KT 6SM -RA BR BKN008 OVC020=



000
FTUS46 KMFR 131726
TAFMFR
TAF
KMFR 131726Z 1318/1418 VRB03KT 1SM BR BKN004
     FM132000 VRB03KT P6SM SCT008 BKN120
     FM140300 VRB03KT 5SM -RA BKN030 OVC070
     FM141100 VRB02KT 1SM -RA BR OVC015=



000
FTUS46 KMFR 131726
TAFRBG
TAF
KRBG 131726Z 1318/1418 13005KT P6SM OVC003
     FM132000 17003KT P6SM SCT010 BKN080
     FM140000 17006KT P6SM -RA BKN040 OVC070
     FM140400 17003KT P6SM -RA BKN020 OVC040
     FM140900 VRB02KT 5SM -RA BKN008 OVC020=



000
FTUS46 KMFR 131638 AAA
TAFOTH
TAF AMD
KOTH 131638Z 1317/1412 21010KT P6SM SCT025
     FM132300 18010G16KT P6SM -RA BKN035 OVC050
     FM140300 19015G25KT 4SM -RA BR BKN015 OVC025
     FM140800 21015KT 4SM -RA BR BKN008 OVC020=



000
FTUS46 KMFR 131225 AAB
TAFMFR
TAF AMD
KMFR 131225Z 1312/1412 00000KT 1/4SM FG VV002 BKN040
     FM131800 VRB03KT 3SM BR BKN004
     FM131900 VRB03KT P6SM SCT008
     FM140400 VRB03KT P6SM -RA BKN040 OVC070=



000
FTUS46 KMFR 131225 AAB
TAFMFR
TAF AMD
KMFR 131225Z 1312/1412 00000KT 1/4SM FG VV002 BKN040
     FM131800 VRB03KT 3SM BR BKN004
     FM131900 VRB03KT P6SM SCT008
     FM140400 VRB03KT P6SM -RA BKN040 OVC070=



000
FTUS46 KMFR 131224 AAA
TAFMFR
TAF AMD
KMFR 131224Z 1312/1412 00000KT 1/4SM FG VV002 BKN040
     FM131800 VRB03KT P6SM SCT010
     FM140400 VRB03KT P6SM -RA BKN040 OVC070=



000
FTUS46 KMFR 131224 AAA
TAFMFR
TAF AMD
KMFR 131224Z 1312/1412 00000KT 1/4SM FG VV002 BKN040
     FM131800 VRB03KT P6SM SCT010
     FM140400 VRB03KT P6SM -RA BKN040 OVC070=



000
FTUS46 KMFR 131142
TAFLMT
TAF
KLMT 131142Z 1312/1412 VRB03KT P6SM SCT010
     FM140300 27006KT P6SM BKN050 BKN080=



000
FTUS46 KMFR 131142
TAFOTH
TAF
KOTH 131142Z 1312/1412 17004KT 1/2SM FG BKN002 OVC020
     FM131700 21010KT P6SM SCT025
     FM132300 18010G16KT P6SM -RA BKN035 OVC050
     FM140300 19015G25KT 4SM -RA BR BKN015 OVC025
     FM140800 21015KT 4SM -RA BR BKN008 OVC020=



000
FTUS46 KMFR 131142
TAFRBG
TAF
KRBG 131142Z 1312/1412 13005KT P6SM OVC003
     FM132000 17003KT P6SM SCT010 BKN080
     FM140000 17006KT P6SM -RA BKN040 OVC070
     FM140400 17003KT P6SM -RA BKN020 OVC040
     FM140900 VRB02KT P6SM -RA BKN010 OVC020=



000
FTUS46 KMFR 131142
TAFMFR
TAF
KMFR 131142Z 1312/1412 00000KT 3SM BR BKN003 BKN040
     FM131800 VRB03KT P6SM SCT010
     FM140400 VRB03KT P6SM -RA BKN040 OVC070=



000
FTUS46 KMFR 131142
TAFRBG
TAF
KRBG 131142Z 1312/1412 13005KT P6SM OVC003
     FM132000 17003KT P6SM SCT010 BKN080
     FM140000 17006KT P6SM -RA BKN040 OVC070
     FM140400 17003KT P6SM -RA BKN020 OVC040
     FM140900 VRB02KT P6SM -RA BKN010 OVC020=



000
FTUS46 KMFR 131142
TAFMFR
TAF
KMFR 131142Z 1312/1412 00000KT 3SM BR BKN003 BKN040
     FM131800 VRB03KT P6SM SCT010
     FM140400 VRB03KT P6SM -RA BKN040 OVC070=



000
FTUS46 KMFR 131142
TAFOTH
TAF
KOTH 131142Z 1312/1412 17004KT 1/2SM FG BKN002 OVC020
     FM131700 21010KT P6SM SCT025
     FM132300 18010G16KT P6SM -RA BKN035 OVC050
     FM140300 19015G25KT 4SM -RA BR BKN015 OVC025
     FM140800 21015KT 4SM -RA BR BKN008 OVC020=



000
FTUS46 KMFR 131142
TAFLMT
TAF
KLMT 131142Z 1312/1412 VRB03KT P6SM SCT010
     FM140300 27006KT P6SM BKN050 BKN080=



000
FTUS46 KMFR 131130 AAD
TAFMFR
TAF AMD
KMFR 131130Z 1312/1406 VRB03KT P6SM BKN003
     FM131700 VRB03KT P6SM SCT020
     FM140100 VRB03KT P6SM VCSH SCT040 BKN070
     FM140400 VRB03KT P6SM -SHRA BKN040 OVC070=



000
FTUS46 KMFR 131130 AAD
TAFMFR
TAF AMD
KMFR 131130Z 1312/1406 VRB03KT P6SM BKN003
     FM131700 VRB03KT P6SM SCT020
     FM140100 VRB03KT P6SM VCSH SCT040 BKN070
     FM140400 VRB03KT P6SM -SHRA BKN040 OVC070=



000
FTUS46 KMFR 130941 AAC
TAFMFR
TAF AMD
KMFR 130941Z 1310/1406 VRB03KT P6SM SCT020 BKN050
     FM131100 00000KT 3SM BR BKN020
     FM131700 VRB03KT P6SM SCT020
     FM140100 VRB03KT P6SM VCSH SCT040 BKN070
     FM140400 VRB03KT P6SM -SHRA BKN040 OVC070=



000
FTUS46 KMFR 130929 AAB
TAFOTH
TAF AMD
KOTH 130929Z 1309/1406 VRB03KT 1SM BR BKN003 OVC020
     FM131700 16005KT P6SM SCT025 SCT035
     FM132100 18008G16KT P6SM SCT035 OVC080
     FM132300 18010G20KT P6SM -RA BKN035 OVC050
     FM140300 18015G25KT 4SM -RA BR BKN015 OVC025=



000
FTUS46 KMFR 130652 AAA
TAFOTH
TAF AMD
KOTH 130652Z 1307/1406 VRB03KT 3SM BR BKN015 OVC025
      TEMPO 1307/1310 SCT025
     FM131700 16005KT P6SM SCT025 SCT035
     FM132100 18008G16KT P6SM SCT035 OVC080
     FM132300 18010G20KT P6SM -RA BKN035 OVC050
     FM140300 18015G25KT 4SM -RA BR BKN015 OVC025=



000
FTUS46 KMFR 130652 AAA
TAFOTH
TAF AMD
KOTH 130652Z 1307/1406 VRB03KT 3SM BR BKN015 OVC025
      TEMPO 1307/1310 SCT025
     FM131700 16005KT P6SM SCT025 SCT035
     FM132100 18008G16KT P6SM SCT035 OVC080
     FM132300 18010G20KT P6SM -RA BKN035 OVC050
     FM140300 18015G25KT 4SM -RA BR BKN015 OVC025=



000
FTUS46 KMFR 130544
TAFRBG
TAF
KRBG 130544Z 1306/1406 00000KT 3SM BR OVC003
     FM131900 17003KT P6SM SCT005 BKN020
     FM132100 17005KT P6SM SCT025
     FM140000 17006KT P6SM -RA BKN040 OVC070
     FM140200 17003KT P6SM -RA BKN030 OVC050=



000
FTUS46 KMFR 130544
TAFOTH
TAF
KOTH 130544Z 1306/1406 VRB03KT 3SM BR BKN015 OVC025
     FM131700 16005KT P6SM SCT025 SCT035
     FM132100 18008G16KT P6SM SCT035 OVC080
     FM132300 18010G20KT P6SM -RA BKN035 OVC050
     FM140300 18015G25KT 4SM -RA BR BKN015 OVC025=



000
FTUS46 KMFR 130544
TAFMFR
TAF
KMFR 130544Z 1306/1406 VRB03KT P6SM SCT020 BKN050
     FM130900 VRB03KT P6SM BKN025
     FM131100 00000KT 3SM BR BKN020
     FM131700 VRB03KT P6SM SCT020
     FM140100 VRB03KT P6SM VCSH SCT040 BKN070
     FM140400 VRB03KT P6SM -SHRA BKN040 OVC070=



000
FTUS46 KMFR 130544
TAFLMT
TAF
KLMT 130544Z 1306/1406 25003KT P6SM BKN050
     FM130900 VRB03KT P6SM BKN030
     FM131300 00000KT P6SM BKN015
     FM131900 24003KT P6SM SCT015=



000
FTUS46 KMFR 130544
TAFOTH
TAF
KOTH 130544Z 1306/1406 VRB03KT 3SM BR BKN015 OVC025
     FM131700 16005KT P6SM SCT025 SCT035
     FM132100 18008G16KT P6SM SCT035 OVC080
     FM132300 18010G20KT P6SM -RA BKN035 OVC050
     FM140300 18015G25KT 4SM -RA BR BKN015 OVC025=



000
FTUS46 KMFR 130544
TAFLMT
TAF
KLMT 130544Z 1306/1406 25003KT P6SM BKN050
     FM130900 VRB03KT P6SM BKN030
     FM131300 00000KT P6SM BKN015
     FM131900 24003KT P6SM SCT015=



000
FTUS46 KMFR 130544
TAFMFR
TAF
KMFR 130544Z 1306/1406 VRB03KT P6SM SCT020 BKN050
     FM130900 VRB03KT P6SM BKN025
     FM131100 00000KT 3SM BR BKN020
     FM131700 VRB03KT P6SM SCT020
     FM140100 VRB03KT P6SM VCSH SCT040 BKN070
     FM140400 VRB03KT P6SM -SHRA BKN040 OVC070=



000
FTUS46 KMFR 130544
TAFRBG
TAF
KRBG 130544Z 1306/1406 00000KT 3SM BR OVC003
     FM131900 17003KT P6SM SCT005 BKN020
     FM132100 17005KT P6SM SCT025
     FM140000 17006KT P6SM -RA BKN040 OVC070
     FM140200 17003KT P6SM -RA BKN030 OVC050=



000
FTUS46 KMFR 130410 AAA
TAFRBG
TAF AMD
KRBG 130410Z 1304/1324 VRB02KT P6SM OVC004
     FM130600 00000KT 3SM BR OVC003
     FM131900 17003KT P6SM SCT005 BKN020
     FM132100 17005KT P6SM SCT025=



000
FTUS46 KMFR 130410 AAA
TAFRBG
TAF AMD
KRBG 130410Z 1304/1324 VRB02KT P6SM OVC004
     FM130600 00000KT 3SM BR OVC003
     FM131900 17003KT P6SM SCT005 BKN020
     FM132100 17005KT P6SM SCT025=



000
FTUS46 KMFR 122326
TAFMFR
TAF
KMFR 122326Z 1300/1324 31010KT P6SM -SHRA BKN040 OVC070
     FM130200 30005KT P6SM VCSH BKN040 BKN070
     FM130400 14006KT P6SM SCT020 BKN035
     FM130800 VRB03KT 6SM BR OVC020=



000
FTUS46 KMFR 122326
TAFRBG
TAF
KRBG 122326Z 1300/1324 VRB03KT P6SM -SHRA SCT020 OVC040
     FM130300 VRB02KT P6SM SCT025 BKN040
     FM130600 00000KT 3SM BR OVC010=



000
FTUS46 KMFR 122326
TAFOTH
TAF
KOTH 122326Z 1300/1324 24007KT P6SM BKN040
     FM130700 17006KT P6SM SCT020 BKN040
     FM132100 20008KT P6SM -RA BKN035 OVC050=



000
FTUS46 KMFR 122326
TAFLMT
TAF
KLMT 122326Z 1300/1324 30012KT P6SM SCT030 BKN060
     FM130400 25003KT P6SM BKN040=



000
FTUS46 KMFR 122326
TAFMFR
TAF
KMFR 122326Z 1300/1324 31010KT P6SM -SHRA BKN040 OVC070
     FM130200 30005KT P6SM VCSH BKN040 BKN070
     FM130400 14006KT P6SM SCT020 BKN035
     FM130800 VRB03KT 6SM BR OVC020=



000
FTUS46 KMFR 122326
TAFRBG
TAF
KRBG 122326Z 1300/1324 VRB03KT P6SM -SHRA SCT020 OVC040
     FM130300 VRB02KT P6SM SCT025 BKN040
     FM130600 00000KT 3SM BR OVC010=



000
FTUS46 KMFR 122326
TAFLMT
TAF
KLMT 122326Z 1300/1324 30012KT P6SM SCT030 BKN060
     FM130400 25003KT P6SM BKN040=



000
FTUS46 KMFR 122326
TAFOTH
TAF
KOTH 122326Z 1300/1324 24007KT P6SM BKN040
     FM130700 17006KT P6SM SCT020 BKN040
     FM132100 20008KT P6SM -RA BKN035 OVC050=



000
FTUS46 KMFR 121801 AAA
TAFOTH
TAF AMD
KOTH 121801Z 1218/1318 24007KT 6SM -SHRA BR SCT007 OVC040
     FM122000 26009KT P6SM VCSH SCT007 BKN025
     FM130000 24007KT P6SM BKN040
     FM130700 17006KT P6SM SCT020 BKN040=



000
FTUS46 KMFR 121801 AAA
TAFOTH
TAF AMD
KOTH 121801Z 1218/1318 24007KT 6SM -SHRA BR SCT007 OVC040
     FM122000 26009KT P6SM VCSH SCT007 BKN025
     FM130000 24007KT P6SM BKN040
     FM130700 17006KT P6SM SCT020 BKN040=



000
FTUS46 KMFR 121733
TAFLMT
TAF
KLMT 121733Z 1218/1318 VRB03KT P6SM SCT060 BKN100
     FM122200 26010KT P6SM BKN060
     FM130400 25003KT P6SM BKN040=



000
FTUS46 KMFR 121733
TAFRBG
TAF
KRBG 121733Z 1218/1318 VRB02KT P6SM VCSH FEW010 SCT025 OVC040
     FM122200 26005KT P6SM VCSH BKN025
     FM130000 33005KT P6SM SCT025 BKN040
     FM130600 00000KT 3SM BR OVC010=



000
FTUS46 KMFR 121733
TAFMFR
TAF
KMFR 121733Z 1218/1318 VRB03KT P6SM SCT050 BKN080
     FM122100 34006KT P6SM VCSH SCT025 BKN040
     FM130400 14006KT P6SM SCT020 BKN035
     FM130800 VRB03KT 6SM BR OVC020=



000
FTUS46 KMFR 121733
TAFOTH
TAF
KOTH 121733Z 1218/1318 24007KT 2SM -SHRA BR BKN007 OVC015
     FM122000 26009KT P6SM VCSH SCT007 BKN025
     FM130000 24007KT P6SM BKN040
     FM130700 17006KT P6SM SCT020 BKN040=



000
FTUS46 KMFR 121610 AAB
TAFRBG
TAF AMD
KRBG 121610Z 1216/1312 VRB03KT P6SM BKN003
     FM121800 VRB03KT P6SM -RA FEW010 SCT025 OVC040
     FM130600 VRB03KT 4SM BR OVC020
     FM131000 VRB02KT 3SM BR OVC010=



000
FTUS46 KMFR 121610 AAB
TAFRBG
TAF AMD
KRBG 121610Z 1216/1312 VRB03KT P6SM BKN003
     FM121800 VRB03KT P6SM -RA FEW010 SCT025 OVC040
     FM130600 VRB03KT 4SM BR OVC020
     FM131000 VRB02KT 3SM BR OVC010=



000
FTUS46 KMFR 121408 AAA
TAFRBG
TAF AMD
KRBG 121408Z 1214/1312 VRB03KT P6SM BKN004
     FM121600 VRB03KT P6SM -RA FEW010 SCT025 OVC040
     FM130600 VRB03KT 4SM BR OVC020
     FM131000 VRB02KT 3SM BR OVC010=



000
FTUS46 KMFR 121147 AAA
TAFLMT
TAF AMD
KLMT 121147Z 1212/1312 VRB03KT P6SM FEW060 BKN100
     FM122100 23010KT P6SM BKN060
     FM130100 31007KT P6SM BKN040=



000
FTUS46 KMFR 121147 AAA
TAFLMT
TAF AMD
KLMT 121147Z 1212/1312 VRB03KT P6SM FEW060 BKN100
     FM122100 23010KT P6SM BKN060
     FM130100 31007KT P6SM BKN040=



000
FTUS46 KMFR 121141
TAFOTH
TAF
KOTH 121141Z 1212/1312 18010KT P6SM -RA SCT030 OVC040
     FM121400 18005KT P6SM -RA BKN020 OVC040
     FM121800 26008KT P6SM VCSH BKN035 OVC050
     FM130300 21005KT P6SM BKN040=



000
FTUS46 KMFR 121141
TAFLMT
TAF
KLMT 121141Z 1212/1312 VRB03KT P6SM FEW060 BKN100
     FM122100 29010KT P6SM BKN060
     FM130400 26006KT P6SM OVC050=



000
FTUS46 KMFR 121141
TAFRBG
TAF
KRBG 121141Z 1212/1312 VRB03KT P6SM BKN060
     FM121600 VRB03KT P6SM -RA SCT025 OVC040
     FM130600 VRB03KT 4SM BR OVC020
     FM131000 VRB02KT 3SM BR OVC010=



000
FTUS46 KMFR 121141
TAFLMT
TAF
KLMT 121141Z 1212/1312 VRB03KT P6SM FEW060 BKN100
     FM122100 29010KT P6SM BKN060
     FM130400 26006KT P6SM OVC050=



000
FTUS46 KMFR 121141
TAFOTH
TAF
KOTH 121141Z 1212/1312 18010KT P6SM -RA SCT030 OVC040
     FM121400 18005KT P6SM -RA BKN020 OVC040
     FM121800 26008KT P6SM VCSH BKN035 OVC050
     FM130300 21005KT P6SM BKN040=



000
FTUS46 KMFR 121141
TAFMFR
TAF
KMFR 121141Z 1212/1312 VRB03KT P6SM SCT050 BKN080
     FM122000 34003KT P6SM -SHRA SCT025 OVC040
     FM130200 34005KT P6SM SCT020 BKN035=



000
FTUS46 KMFR 121141
TAFRBG
TAF
KRBG 121141Z 1212/1312 VRB03KT P6SM BKN060
     FM121600 VRB03KT P6SM -RA SCT025 OVC040
     FM130600 VRB03KT 4SM BR OVC020
     FM131000 VRB02KT 3SM BR OVC010=



000
FTUS46 KMFR 121141
TAFMFR
TAF
KMFR 121141Z 1212/1312 VRB03KT P6SM SCT050 BKN080
     FM122000 34003KT P6SM -SHRA SCT025 OVC040
     FM130200 34005KT P6SM SCT020 BKN035=



000
FTUS46 KMFR 120807 AAB
TAFOTH
TAF AMD
KOTH 120807Z 1208/1306 16006KT P6SM BKN035 BKN050
     FM121100 18010KT P6SM -RA BKN025 OVC035
     FM121700 23008KT P6SM -SHRA OVC025
     FM122200 25010KT P6SM VCSH SCT025 OVC035
     FM130300 21005KT P6SM OVC020=



000
FTUS46 KMFR 120807 AAB
TAFOTH
TAF AMD
KOTH 120807Z 1208/1306 16006KT P6SM BKN035 BKN050
     FM121100 18010KT P6SM -RA BKN025 OVC035
     FM121700 23008KT P6SM -SHRA OVC025
     FM122200 25010KT P6SM VCSH SCT025 OVC035
     FM130300 21005KT P6SM OVC020=



000
FTUS46 KMFR 120712 AAA
TAFRBG
TAF AMD
KRBG 120712Z 1207/1306 VRB03KT P6SM BKN060
     FM121600 VRB03KT P6SM -RA SCT025 OVC040
     FM122100 VRB03KT P6SM -SHRA BKN025 OVC035
     FM130400 VRB03KT 4SM BR OVC020=



000
FTUS46 KMFR 120708 AAB
TAFMFR
TAF AMD
KMFR 120708Z 1207/1306 VRB03KT P6SM SCT050 BKN080
     FM122000 VRB03KT P6SM -SHRA SCT025 OVC040
     FM130400 VRB03KT 5SM BR OVC020=



000
FTUS46 KMFR 120705 AAA
TAFOTH
TAF AMD
KOTH 120705Z 1207/1306 20010G16KT P6SM BKN035 BKN050
     FM121100 18010KT P6SM -RA BKN025 OVC035
     FM121700 23008KT P6SM -SHRA OVC025
     FM122200 25010KT P6SM VCSH SCT025 OVC035
     FM130300 21005KT P6SM OVC020=



000
FTUS46 KMFR 120544
TAFOTH
TAF
KOTH 120544Z 1206/1306 19010KT P6SM BKN035 OVC050
     FM121100 18008KT P6SM -RA OVC035
     FM121500 22010KT P6SM -SHRA SCT025 OVC035
     FM130300 25004KT P6SM OVC025=



000
FTUS46 KMFR 120544
TAFLMT
TAF
KLMT 120544Z 1206/1306 16007KT P6SM FEW060 BKN100
     FM122300 29010KT P6SM BKN060
     FM130400 26006KT P6SM OVC050=



000
FTUS46 KMFR 120544
TAFRBG
TAF
KRBG 120544Z 1206/1306 VRB03KT P6SM OVC060
     FM121600 18006KT P6SM -RA OVC040
     FM122100 27008KT P6SM -SHRA SCT020 OVC035
     FM130400 19005KT P6SM OVC020=



000
FTUS46 KMFR 120544
TAFMFR
TAF
KMFR 120544Z 1206/1306 VRB03KT P6SM SCT050 BKN080
     FM122000 VRB03KT P6SM -SHRA SCT025 OVC040=



000
FTUS46 KMFR 112320
TAFOTH
TAF
KOTH 112320Z 1200/1224 26008KT P6SM BKN080
     FM120200 VRB03KT P6SM OVC060
     FM120600 14005KT P6SM OVC050
     FM121100 16008KT P6SM -RA OVC040
     FM121500 24010KT P6SM -SHRA SCT020 OVC035=



000
FTUS46 KMFR 112320
TAFLMT
TAF
KLMT 112320Z 1200/1224 14006KT P6SM BKN100
     FM122300 30010KT P6SM BKN060=



000
FTUS46 KMFR 112320
TAFRBG
TAF
KRBG 112320Z 1200/1224 VRB03KT P6SM BKN100
     FM120400 VRB03KT P6SM OVC060
     FM121600 18006KT P6SM -RA OVC040
     FM122100 35008KT P6SM -SHRA SCT020 OVC035=



000
FTUS46 KMFR 112320
TAFMFR
TAF
KMFR 112320Z 1200/1224 VRB03KT P6SM BKN100
     FM120600 VRB03KT P6SM OVC050
     FM122000 VRB03KT P6SM -SHRA OVC040=



000
FTUS46 KMFR 112320
TAFLMT
TAF
KLMT 112320Z 1200/1224 14006KT P6SM BKN100
     FM122300 30010KT P6SM BKN060=



000
FTUS46 KMFR 112320
TAFOTH
TAF
KOTH 112320Z 1200/1224 26008KT P6SM BKN080
     FM120200 VRB03KT P6SM OVC060
     FM120600 14005KT P6SM OVC050
     FM121100 16008KT P6SM -RA OVC040
     FM121500 24010KT P6SM -SHRA SCT020 OVC035=



000
FTUS46 KMFR 112320
TAFRBG
TAF
KRBG 112320Z 1200/1224 VRB03KT P6SM BKN100
     FM120400 VRB03KT P6SM OVC060
     FM121600 18006KT P6SM -RA OVC040
     FM122100 35008KT P6SM -SHRA SCT020 OVC035=



000
FTUS46 KMFR 112320
TAFMFR
TAF
KMFR 112320Z 1200/1224 VRB03KT P6SM BKN100
     FM120600 VRB03KT P6SM OVC050
     FM122000 VRB03KT P6SM -SHRA OVC040=



000
FTUS46 KMFR 111741
TAFOTH
TAF
KOTH 111741Z 1118/1218 17005KT P6SM -SHRA SCT035 BKN050 BKN090
     FM112100 17008KT P6SM FEW030 BKN050 OVC120
     FM120900 17010G20KT 4SM -RA BR BKN020 OVC035=



000
FTUS46 KMFR 111741
TAFLMT
TAF
KLMT 111741Z 1118/1218 VRB03KT P6SM FEW060 BKN120
     FM112200 17008KT P6SM BKN120
     FM120900 17003KT P6SM BKN070 BKN100=



000
FTUS46 KMFR 111741
TAFRBG
TAF
KRBG 111741Z 1118/1218 00000KT P6SM -SHRA SCT035 BKN090
     FM112100 VRB03KT P6SM FEW050 BKN110
     FM121400 17004KT P6SM -RA BKN025 OVC040=



000
FTUS46 KMFR 111741
TAFMFR
TAF
KMFR 111741Z 1118/1218 VRB03KT P6SM BKN120
     FM121500 VRB03KT P6SM -SHRA BKN050=



000
FTUS46 KMFR 111741
TAFMFR
TAF
KMFR 111741Z 1118/1218 VRB03KT P6SM BKN120
     FM121500 VRB03KT P6SM -SHRA BKN050=



000
FTUS46 KMFR 111741
TAFOTH
TAF
KOTH 111741Z 1118/1218 17005KT P6SM -SHRA SCT035 BKN050 BKN090
     FM112100 17008KT P6SM FEW030 BKN050 OVC120
     FM120900 17010G20KT 4SM -RA BR BKN020 OVC035=



000
FTUS46 KMFR 111741
TAFLMT
TAF
KLMT 111741Z 1118/1218 VRB03KT P6SM FEW060 BKN120
     FM112200 17008KT P6SM BKN120
     FM120900 17003KT P6SM BKN070 BKN100=



000
FTUS46 KMFR 111741
TAFRBG
TAF
KRBG 111741Z 1118/1218 00000KT P6SM -SHRA SCT035 BKN090
     FM112100 VRB03KT P6SM FEW050 BKN110
     FM121400 17004KT P6SM -RA BKN025 OVC040=



000
FTUS46 KMFR 111141
TAFRBG
TAF
KRBG 111141Z 1112/1212 00000KT P6SM VCSH SCT035 OVC090
     FM112100 VRB03KT P6SM FEW050 BKN110 OVC140=



000
FTUS46 KMFR 111141
TAFMFR
TAF
KMFR 111141Z 1112/1212 00000KT P6SM SCT100 OVC120
     FM112300 VRB03KT P6SM SCT050 BKN140=



000
FTUS46 KMFR 111141
TAFOTH
TAF
KOTH 111141Z 1112/1212 15005KT P6SM VCSH FEW035 SCT060 OVC090
     FM111700 17005KT P6SM -SHRA SCT025 BKN035 OVC050
     FM112100 24008KT P6SM FEW030 BKN050 OVC140=



000
FTUS46 KMFR 111141
TAFRBG
TAF
KRBG 111141Z 1112/1212 00000KT P6SM VCSH SCT035 OVC090
     FM112100 VRB03KT P6SM FEW050 BKN110 OVC140=



000
FTUS46 KMFR 111141
TAFMFR
TAF
KMFR 111141Z 1112/1212 00000KT P6SM SCT100 OVC120
     FM112300 VRB03KT P6SM SCT050 BKN140=



000
FTUS46 KMFR 111141
TAFLMT
TAF
KLMT 111141Z 1112/1212 VRB03KT P6SM FEW060 BKN080 OVC140=



000
FTUS46 KMFR 111141
TAFLMT
TAF
KLMT 111141Z 1112/1212 VRB03KT P6SM FEW060 BKN080 OVC140=



000
FTUS46 KMFR 111141
TAFOTH
TAF
KOTH 111141Z 1112/1212 15005KT P6SM VCSH FEW035 SCT060 OVC090
     FM111700 17005KT P6SM -SHRA SCT025 BKN035 OVC050
     FM112100 24008KT P6SM FEW030 BKN050 OVC140=



    US Dept of Commerce
    National Oceanic and Atmospheric Administration
    National Weather Service
    1325 East West Highway
    Silver Spring, MD 20910
    Page Author: NWS Internet Services Team
Disclaimer
Information Quality
Credits
Glossary
Privacy Policy
Freedom of Information Act (FOIA)
About Us
Career Opportunities